Time;durP1;ratioP1;P1;durP2;ratioP2;P2;SDS_P1;SDS_P2;PMS_P1;PMS_P2;Temp;Humidity;BMP_temperature;BMP_pressure;BME280_temperature;BME280_humidity;BME280_pressure;Samples;Min_cycle;Max_cycle;Signal;HPM_P1;HPM_P2
2021/12/08 00:00:35;;;;;;;10.25;3.58;;;3.60;99.90;;;;;;4990299;28;20049;-64
2021/12/08 00:03:04;;;;;;;9.05;3.97;;;3.60;99.90;;;;;;4977195;28;20041;-64
2021/12/08 00:05:30;;;;;;;6.00;3.55;;;3.50;99.90;;;;;;4997339;28;20731;-63
2021/12/08 00:07:56;;;;;;;13.13;3.88;;;3.60;99.90;;;;;;4964064;28;20045;-63
2021/12/08 00:15:40;;;;;;;12.70;4.43;;;3.90;99.90;;;;;;4993548;28;21974;-63
2021/12/08 00:18:09;;;;;;;8.25;4.10;;;3.60;99.90;;;;;;5000635;28;20041;-64
2021/12/08 00:20:36;;;;;;;8.82;4.18;;;3.70;99.90;;;;;;4995357;28;20120;-63
2021/12/08 00:23:05;;;;;;;9.35;4.72;;;3.70;99.90;;;;;;4996474;28;20554;-62
2021/12/08 00:25:31;;;;;;;10.82;5.82;;;3.70;99.90;;;;;;5006445;28;20456;-64
2021/12/08 00:27:59;;;;;;;11.15;4.50;;;3.70;99.90;;;;;;4993172;28;20099;-64
2021/12/08 00:30:26;;;;;;;9.43;3.88;;;3.80;99.90;;;;;;4998917;28;20053;-64
2021/12/08 00:32:53;;;;;;;11.93;4.20;;;3.70;99.90;;;;;;4983455;28;20037;-64
2021/12/08 00:35:19;;;;;;;8.68;3.70;;;3.80;99.90;;;;;;5015146;28;20047;-64
2021/12/08 00:37:45;;;;;;;9.70;4.15;;;3.80;99.90;;;;;;5006995;28;20052;-63
2021/12/08 00:40:14;;;;;;;12.07;4.88;;;3.90;99.90;;;;;;5017121;28;20084;-63
2021/12/08 00:42:41;;;;;;;7.05;3.83;;;3.90;99.90;;;;;;5007586;28;20513;-63
2021/12/08 00:45:09;;;;;;;8.80;4.18;;;3.90;99.90;;;;;;4995994;28;20041;-64
2021/12/08 00:47:35;;;;;;;12.95;5.35;;;3.90;99.90;;;;;;4974694;28;20065;-63
2021/12/08 00:50:00;;;;;;;10.70;4.60;;;3.90;99.90;;;;;;5005265;28;20033;-64
2021/12/08 00:52:29;;;;;;;15.15;4.65;;;3.90;99.90;;;;;;5000055;28;20239;-64
2021/12/08 00:54:55;;;;;;;9.38;4.80;;;3.90;99.90;;;;;;4989509;28;20507;-64
2021/12/08 00:57:22;;;;;;;11.32;4.53;;;4.00;99.90;;;;;;5010644;28;20037;-64
2021/12/08 00:59:48;;;;;;;11.15;5.35;;;3.90;99.90;;;;;;5008085;28;20124;-64
2021/12/08 01:02:14;;;;;;;8.88;5.20;;;3.90;99.90;;;;;;5013588;28;20047;-64
2021/12/08 01:04:39;;;;;;;8.70;4.80;;;3.90;99.90;;;;;;5009619;28;20116;-64
2021/12/08 01:07:05;;;;;;;8.05;4.30;;;3.90;99.90;;;;;;5008181;28;20304;-64
2021/12/08 01:09:32;;;;;;;9.88;5.20;;;3.90;99.90;;;;;;5004947;28;20120;-63
2021/12/08 01:12:01;;;;;;;10.52;5.13;;;3.90;99.90;;;;;;5008426;28;20033;-63
2021/12/08 01:14:29;;;;;;;11.38;5.70;;;3.90;99.90;;;;;;5009645;28;20037;-64
2021/12/08 01:16:56;;;;;;;11.25;5.65;;;3.90;99.90;;;;;;5008722;28;20066;-63
2021/12/08 01:19:22;;;;;;;7.65;5.55;;;3.90;99.90;;;;;;5002518;28;20072;-63
2021/12/08 01:21:47;;;;;;;12.15;5.88;;;3.90;99.90;;;;;;5003226;28;20427;-63
2021/12/08 01:24:13;;;;;;;8.25;5.20;;;3.90;99.90;;;;;;4991090;28;20033;-63
2021/12/08 01:26:39;;;;;;;11.18;6.10;;;3.90;99.90;;;;;;5001384;28;20058;-63
2021/12/08 01:29:07;;;;;;;10.85;5.80;;;3.90;99.90;;;;;;5005275;28;20350;-63
2021/12/08 01:31:33;;;;;;;11.45;5.57;;;4.00;99.90;;;;;;4992980;28;20091;-63
2021/12/08 01:33:58;;;;;;;12.68;6.93;;;4.00;99.90;;;;;;4993944;28;20053;-63
2021/12/08 01:36:24;;;;;;;14.50;6.10;;;4.00;99.90;;;;;;5006167;28;20041;-63
2021/12/08 01:38:50;;;;;;;10.35;5.43;;;4.00;99.90;;;;;;5014176;28;20045;-64
2021/12/08 01:41:16;;;;;;;10.65;6.43;;;3.90;99.90;;;;;;4990672;28;20122;-63
2021/12/08 01:45:57;;;;;;;10.25;5.72;;;4.00;99.90;;;;;;5004118;28;20041;-63
2021/12/08 01:46:28;;;;;;;9.75;5.75;;;4.00;99.90;;;;;;5001482;28;20051;-63
2021/12/08 01:48:54;;;;;;;11.60;6.43;;;4.00;99.90;;;;;;5003334;28;20049;-64
2021/12/08 01:51:20;;;;;;;13.02;6.45;;;4.00;99.90;;;;;;5010477;28;20067;-63
2021/12/08 01:53:50;;;;;;;11.18;6.05;;;4.00;99.90;;;;;;5011182;28;20037;-63
2021/12/08 01:56:18;;;;;;;12.25;6.25;;;4.00;99.90;;;;;;5003330;28;20046;-65
2021/12/08 01:58:44;;;;;;;9.95;6.15;;;4.00;99.90;;;;;;5017069;28;20124;-64
2021/12/08 02:01:13;;;;;;;9.43;6.40;;;4.00;99.90;;;;;;4987198;28;20496;-63
2021/12/08 02:03:41;;;;;;;9.05;6.95;;;4.00;99.90;;;;;;5025939;28;20041;-63
2021/12/08 02:06:08;;;;;;;11.13;7.32;;;4.00;99.90;;;;;;4986796;28;20041;-64
2021/12/08 02:08:36;;;;;;;10.48;6.68;;;4.10;99.90;;;;;;4976705;28;20511;-63
2021/12/08 02:11:04;;;;;;;11.50;7.05;;;4.10;99.90;;;;;;4999884;28;20036;-63
2021/12/08 02:13:37;;;;;;;11.15;7.00;;;4.10;99.90;;;;;;5015006;28;20049;-63
2021/12/08 02:16:08;;;;;;;10.93;7.27;;;4.10;99.90;;;;;;4982578;28;20053;-62
2021/12/08 02:18:35;;;;;;;12.50;8.18;;;4.10;99.90;;;;;;4984060;28;20398;-62
2021/12/08 02:21:05;;;;;;;11.93;6.85;;;4.10;99.90;;;;;;5008459;28;20107;-63
2021/12/08 02:23:31;;;;;;;12.27;7.00;;;4.20;99.90;;;;;;4998604;28;20100;-63
2021/12/08 02:25:58;;;;;;;13.38;7.20;;;4.20;99.90;;;;;;5008736;28;20458;-63
2021/12/08 02:28:24;;;;;;;11.85;6.97;;;4.20;99.90;;;;;;5011546;28;20135;-63
2021/12/08 02:31:00;;;;;;;10.77;6.82;;;4.20;99.90;;;;;;4991728;28;20073;-63
2021/12/08 02:49:48;;;;;;;13.13;8.35;;;4.40;99.90;;;;;;4997967;28;20029;-63
2021/12/08 02:52:16;;;;;;;12.90;7.95;;;4.40;99.90;;;;;;4989539;28;20397;-64
2021/12/08 02:54:49;;;;;;;11.52;8.43;;;4.40;99.90;;;;;;5009894;28;20135;-64
2021/12/08 02:57:17;;;;;;;10.17;7.90;;;4.40;99.90;;;;;;5016672;28;20060;-63
2021/12/08 02:59:45;;;;;;;13.23;9.25;;;4.40;99.90;;;;;;4988252;28;20128;-64
2021/12/08 03:02:11;;;;;;;14.13;8.90;;;4.40;99.90;;;;;;5002364;28;21905;-63
2021/12/08 03:04:38;;;;;;;12.48;9.48;;;4.40;99.90;;;;;;4993642;28;20033;-64
2021/12/08 03:07:05;;;;;;;13.13;8.88;;;4.40;99.90;;;;;;5003920;28;20144;-64
2021/12/08 03:09:31;;;;;;;12.85;9.38;;;4.50;99.90;;;;;;5001648;28;20070;-64
2021/12/08 03:11:58;;;;;;;14.90;9.63;;;4.50;99.90;;;;;;4984098;28;20108;-64
2021/12/08 03:14:25;;;;;;;14.73;9.57;;;4.50;99.90;;;;;;5008325;28;20045;-63
2021/12/08 03:16:54;;;;;;;11.55;9.88;;;4.60;99.90;;;;;;5010010;28;20049;-63
2021/12/08 03:19:22;;;;;;;12.07;10.20;;;4.60;99.90;;;;;;4984400;28;20033;-64
2021/12/08 03:21:49;;;;;;;15.20;10.40;;;4.60;99.90;;;;;;5015175;28;20400;-64
2021/12/08 03:26:53;;;;;;;14.00;10.70;;;4.60;99.90;;;;;;5011636;28;20041;-64
2021/12/08 03:29:32;;;;;;;17.13;10.98;;;4.70;99.90;;;;;;4990096;28;20037;-64
2021/12/08 03:32:05;;;;;;;18.40;10.80;;;4.70;99.90;;;;;;5004444;28;20133;-64
2021/12/08 03:34:35;;;;;;;16.02;11.13;;;4.70;99.90;;;;;;5006305;28;20736;-63
2021/12/08 03:37:01;;;;;;;18.25;11.48;;;4.70;99.90;;;;;;5005212;28;20045;-64
2021/12/08 03:39:27;;;;;;;14.40;11.23;;;4.80;99.90;;;;;;5003237;28;20045;-63
2021/12/08 03:41:54;;;;;;;14.57;11.13;;;4.80;99.90;;;;;;5001133;28;20385;-64
2021/12/08 03:44:20;;;;;;;16.75;11.70;;;4.80;99.90;;;;;;5012705;28;20051;-64
2021/12/08 03:46:45;;;;;;;16.08;11.85;;;4.80;99.90;;;;;;4985829;28;20419;-63
2021/12/08 03:49:17;;;;;;;17.30;11.43;;;4.90;99.90;;;;;;5008521;28;20087;-63
2021/12/08 03:51:44;;;;;;;16.67;11.98;;;4.90;99.90;;;;;;5005748;28;20377;-63
2021/12/08 03:54:11;;;;;;;15.93;12.13;;;4.90;99.90;;;;;;5014811;28;20095;-64
2021/12/08 03:56:37;;;;;;;15.57;11.75;;;4.90;99.90;;;;;;5007926;28;20041;-63
2021/12/08 03:59:05;;;;;;;17.90;13.07;;;4.90;99.90;;;;;;5010786;28;20504;-63
2021/12/08 04:01:32;;;;;;;17.92;12.07;;;4.90;99.90;;;;;;4999358;28;20132;-63
2021/12/08 04:04:06;;;;;;;16.85;12.15;;;5.00;99.90;;;;;;4984724;28;20038;-63
2021/12/08 04:06:44;;;;;;;17.02;12.77;;;5.00;99.90;;;;;;4973111;28;20050;-64
2021/12/08 04:09:25;;;;;;;20.70;13.73;;;5.00;99.90;;;;;;5005390;28;20295;-63
2021/12/08 04:11:50;;;;;;;15.45;12.50;;;5.00;99.90;;;;;;5011034;28;20065;-64
2021/12/08 04:14:20;;;;;;;20.42;13.20;;;5.00;99.90;;;;;;4985299;28;20123;-64
2021/12/08 04:16:55;;;;;;;19.48;13.32;;;5.00;99.90;;;;;;4980277;28;20129;-64
2021/12/08 04:19:22;;;;;;;19.60;12.68;;;5.00;99.90;;;;;;5004879;28;20044;-65
2021/12/08 04:21:50;;;;;;;19.38;12.95;;;5.00;99.90;;;;;;5010882;28;20535;-65
2021/12/08 04:24:16;;;;;;;17.25;13.18;;;5.00;99.90;;;;;;5007948;28;20052;-64
2021/12/08 04:27:03;;;;;;;17.05;12.65;;;5.10;99.90;;;;;;4988476;28;20041;-65
2021/12/08 04:29:33;;;;;;;18.92;13.20;;;5.10;99.90;;;;;;4983991;28;20033;-64
2021/12/08 04:32:00;;;;;;;17.63;13.50;;;5.10;99.90;;;;;;5006945;28;20108;-64
2021/12/08 04:34:32;;;;;;;18.75;13.57;;;5.10;99.90;;;;;;5029656;28;20461;-64
2021/12/08 04:37:02;;;;;;;17.77;13.00;;;5.10;99.90;;;;;;5005653;28;20037;-64
2021/12/08 04:39:45;;;;;;;18.75;13.45;;;5.10;99.90;;;;;;4999345;28;20110;-63
2021/12/08 04:42:16;;;;;;;19.90;13.00;;;5.20;99.90;;;;;;5000424;28;20041;-64
2021/12/08 04:44:55;;;;;;;20.15;12.93;;;5.20;99.90;;;;;;5005827;28;20041;-64
2021/12/08 05:00:59;;;;;;;20.08;14.02;;;5.30;99.90;;;;;;5022897;23;20042;-64
2021/12/08 05:08:54;;;;;;;21.88;13.30;;;5.40;99.90;;;;;;5001524;28;20073;-64
2021/12/08 05:11:32;;;;;;;18.92;13.35;;;5.40;99.90;;;;;;5006836;28;20053;-64
2021/12/08 05:14:06;;;;;;;19.65;12.93;;;5.40;99.90;;;;;;5005825;28;20180;-64
2021/12/08 05:16:33;;;;;;;20.80;12.95;;;5.50;99.90;;;;;;5007156;28;20124;-64
2021/12/08 05:19:01;;;;;;;19.77;13.00;;;5.50;99.90;;;;;;5010706;28;20049;-64
2021/12/08 05:21:36;;;;;;;19.27;12.90;;;5.40;99.90;;;;;;5021480;28;20034;-64
2021/12/08 05:24:15;;;;;;;20.83;14.05;;;5.40;99.90;;;;;;5008721;28;20050;-64
2021/12/08 05:26:59;;;;;;;16.73;11.77;;;5.40;99.90;;;;;;5006205;28;20121;-64
2021/12/08 05:29:38;;;;;;;22.95;13.82;;;5.40;99.90;;;;;;5010998;28;20365;-65
2021/12/08 05:32:05;;;;;;;16.83;12.23;;;5.40;99.90;;;;;;5021188;28;20388;-64
2021/12/08 05:34:33;;;;;;;21.42;13.02;;;5.40;99.90;;;;;;5005805;28;20073;-64
2021/12/08 05:36:59;;;;;;;19.75;13.13;;;5.40;99.90;;;;;;5003780;28;20503;-64
2021/12/08 05:39:27;;;;;;;18.75;13.48;;;5.40;99.90;;;;;;5016683;28;20524;-64
2021/12/08 05:41:58;;;;;;;21.80;13.07;;;5.40;99.90;;;;;;5004557;28;20046;-64
2021/12/08 05:44:25;;;;;;;21.80;13.15;;;5.40;99.90;;;;;;5019075;28;20095;-64
2021/12/08 05:46:54;;;;;;;27.20;13.18;;;5.40;99.90;;;;;;4975429;28;20034;-64
2021/12/08 05:49:22;;;;;;;19.13;12.93;;;5.40;99.90;;;;;;5004988;28;20044;-64
2021/12/08 05:51:51;;;;;;;23.70;12.88;;;5.40;99.90;;;;;;5001385;28;20399;-64
2021/12/08 05:54:32;;;;;;;20.15;12.60;;;5.40;99.90;;;;;;5019298;28;20390;-64
2021/12/08 05:57:03;;;;;;;19.52;11.63;;;5.40;99.90;;;;;;5011346;28;20072;-64
2021/12/08 05:59:30;;;;;;;21.80;12.02;;;5.40;99.90;;;;;;5001341;28;20041;-64
2021/12/08 06:02:01;;;;;;;20.85;13.00;;;5.40;99.90;;;;;;4978557;28;20106;-64
2021/12/08 06:04:29;;;;;;;19.83;12.00;;;5.40;99.90;;;;;;4997866;28;20164;-64
2021/12/08 06:06:55;;;;;;;17.73;11.95;;;5.40;99.90;;;;;;4997309;28;20048;-64
2021/12/08 06:09:23;;;;;;;18.83;11.77;;;5.40;99.90;;;;;;5002761;28;20118;-65
2021/12/08 06:11:50;;;;;;;17.85;11.10;;;5.40;99.90;;;;;;5006589;28;20048;-64
2021/12/08 06:14:17;;;;;;;14.00;9.82;;;5.50;99.90;;;;;;5004990;28;20095;-64
2021/12/08 06:16:46;;;;;;;22.25;10.50;;;5.40;99.90;;;;;;5002418;28;20056;-64
2021/12/08 06:19:14;;;;;;;18.80;10.63;;;5.50;99.90;;;;;;5001249;28;20133;-65
2021/12/08 06:21:41;;;;;;;15.63;10.27;;;5.50;99.90;;;;;;5001305;28;20102;-64
2021/12/08 06:24:11;;;;;;;16.52;9.90;;;5.40;99.90;;;;;;4981150;28;20411;-64
2021/12/08 06:26:37;;;;;;;16.38;10.18;;;5.40;99.90;;;;;;5005331;28;20046;-64
2021/12/08 06:29:05;;;;;;;15.73;9.52;;;5.40;99.90;;;;;;5006309;28;20041;-64
2021/12/08 06:31:33;;;;;;;18.85;11.80;;;5.40;99.90;;;;;;4992154;28;20029;-64
2021/12/08 06:33:59;;;;;;;14.32;9.77;;;5.30;99.90;;;;;;5010535;28;20057;-64
2021/12/08 06:36:42;;;;;;;12.68;8.88;;;5.30;99.90;;;;;;5006736;28;20038;-64
2021/12/08 06:39:12;;;;;;;15.35;9.35;;;5.20;99.90;;;;;;5007496;28;20080;-64
2021/12/08 06:41:43;;;;;;;14.00;8.18;;;5.20;99.90;;;;;;5000870;28;20495;-64
2021/12/08 06:44:13;;;;;;;16.67;8.77;;;5.20;99.90;;;;;;5008664;28;20052;-64
2021/12/08 06:46:41;;;;;;;16.90;8.75;;;5.20;99.90;;;;;;4997149;28;20041;-64
2021/12/08 06:49:09;;;;;;;13.82;8.50;;;5.20;99.90;;;;;;4996902;28;20037;-64
2021/12/08 06:52:15;;;;;;;19.52;8.18;;;5.10;99.90;;;;;;5007392;28;20045;-64
2021/12/08 06:54:50;;;;;;;13.18;9.13;;;5.20;99.90;;;;;;5002151;28;20148;-64
2021/12/08 06:57:27;;;;;;;13.63;8.10;;;5.10;99.90;;;;;;5008157;28;20049;-64
2021/12/08 07:00:12;;;;;;;19.40;8.63;;;5.10;99.90;;;;;;4990035;28;20033;-64
2021/12/08 07:08:03;;;;;;;15.82;7.50;;;5.10;99.90;;;;;;4997701;28;20084;-64
2021/12/08 07:10:39;;;;;;;17.70;8.13;;;5.10;99.90;;;;;;4990828;28;20052;-64
2021/12/08 07:13:12;;;;;;;17.13;8.32;;;5.20;99.90;;;;;;4994607;28;20049;-64
2021/12/08 07:15:45;;;;;;;10.65;7.30;;;5.20;99.90;;;;;;4986252;28;20037;-64
2021/12/08 07:18:50;;;;;;;14.95;6.90;;;5.20;99.90;;;;;;5006548;28;20046;-64
2021/12/08 07:21:16;;;;;;;14.05;6.75;;;5.20;99.90;;;;;;4994072;28;20053;-64
2021/12/08 07:23:47;;;;;;;16.15;7.13;;;5.30;99.90;;;;;;4989167;28;20574;-64
2021/12/08 07:26:20;;;;;;;16.88;6.63;;;5.30;99.90;;;;;;4995900;28;20049;-64
2021/12/08 07:28:47;;;;;;;11.43;6.20;;;5.30;99.90;;;;;;5002721;28;20467;-64
2021/12/08 07:31:29;;;;;;;13.75;6.50;;;5.30;99.90;;;;;;4986394;28;20050;-64
2021/12/08 07:34:02;;;;;;;15.93;6.45;;;5.40;99.90;;;;;;5006833;28;20049;-64
2021/12/08 07:36:28;;;;;;;10.43;5.90;;;5.40;99.90;;;;;;4964107;28;20041;-64
2021/12/08 07:38:56;;;;;;;13.25;6.00;;;5.40;99.90;;;;;;4991968;28;20103;-64
2021/12/08 07:41:30;;;;;;;12.13;5.80;;;5.40;99.90;;;;;;5013613;28;20073;-64
2021/12/08 07:43:58;;;;;;;9.52;4.72;;;5.40;99.90;;;;;;4990013;28;20046;-64
2021/12/08 07:46:31;;;;;;;12.35;6.07;;;5.40;99.90;;;;;;4998216;28;20095;-64
2021/12/08 07:49:07;;;;;;;12.82;5.50;;;5.40;99.90;;;;;;4995255;28;20041;-64
2021/12/08 07:51:53;;;;;;;9.50;5.25;;;5.40;99.90;;;;;;4994480;28;20042;-64
2021/12/08 07:54:21;;;;;;;12.25;5.35;;;5.40;99.90;;;;;;4998671;28;20045;-64
2021/12/08 07:56:51;;;;;;;9.00;4.85;;;5.40;99.90;;;;;;4986670;28;20046;-64
2021/12/08 07:59:19;;;;;;;13.88;5.43;;;5.40;99.90;;;;;;5003869;28;20453;-64
2021/12/08 08:01:50;;;;;;;10.00;5.30;;;5.40;99.90;;;;;;4991359;28;20161;-64
2021/12/08 08:04:19;;;;;;;10.88;5.68;;;5.40;99.90;;;;;;4991135;28;20053;-64
2021/12/08 08:06:49;;;;;;;12.93;4.70;;;5.40;99.90;;;;;;5015361;28;20069;-64
2021/12/08 08:09:20;;;;;;;9.88;4.90;;;5.40;99.90;;;;;;4993502;28;20038;-61
2021/12/08 08:11:56;;;;;;;11.27;4.13;;;5.40;99.90;;;;;;5005576;28;20045;-62
2021/12/08 08:14:27;;;;;;;13.27;4.68;;;5.40;99.90;;;;;;4998283;28;20053;-64
2021/12/08 08:16:57;;;;;;;11.18;4.30;;;5.40;99.90;;;;;;5004465;28;20038;-64
2021/12/08 08:19:28;;;;;;;9.20;4.32;;;5.40;99.90;;;;;;5004640;28;20119;-64
2021/12/08 08:22:00;;;;;;;7.85;3.42;;;5.30;99.90;;;;;;5001849;28;20556;-64
2021/12/08 08:24:27;;;;;;;8.60;4.18;;;5.30;99.90;;;;;;5013336;28;20056;-64
2021/12/08 08:26:57;;;;;;;7.47;3.33;;;5.30;99.90;;;;;;4971941;28;20034;-64
2021/12/08 08:29:22;;;;;;;8.95;3.60;;;5.30;99.90;;;;;;4986622;28;20049;-63
2021/12/08 08:32:17;;;;;;;8.68;3.50;;;5.20;99.90;;;;;;4997211;28;20463;-64
2021/12/08 08:34:45;;;;;;;8.85;3.50;;;5.20;99.90;;;;;;5014799;28;20056;-64
2021/12/08 08:37:12;;;;;;;10.15;3.42;;;5.20;99.90;;;;;;5001798;28;20042;-64
2021/12/08 08:39:45;;;;;;;10.65;3.35;;;5.20;99.90;;;;;;4987791;28;20061;-63
2021/12/08 08:42:16;;;;;;;9.27;2.95;;;5.20;99.90;;;;;;5010875;28;20073;-63
2021/12/08 08:44:48;;;;;;;11.75;2.88;;;5.20;99.90;;;;;;5000432;28;20495;-63
2021/12/08 08:47:19;;;;;;;11.88;3.28;;;5.80;99.90;;;;;;5009424;28;20038;-63
2021/12/08 08:49:46;;;;;;;14.60;3.53;;;5.10;99.90;;;;;;5021520;28;20683;-63
2021/12/08 08:52:46;;;;;;;8.55;3.13;;;5.10;99.90;;;;;;5007809;28;20121;-63
2021/12/08 08:55:30;;;;;;;8.20;3.10;;;5.10;99.90;;;;;;4985446;28;20044;-63
2021/12/08 08:57:56;;;;;;;7.90;2.70;;;5.10;99.90;;;;;;5014431;28;20049;-63
2021/12/08 09:00:32;;;;;;;5.97;2.75;;;5.10;99.90;;;;;;5007733;28;20597;-63
2021/12/08 09:03:02;;;;;;;16.63;3.63;;;5.10;99.90;;;;;;5005694;28;20447;-63
2021/12/08 09:05:37;;;;;;;9.73;2.50;;;5.10;99.90;;;;;;5018986;28;20053;-63
2021/12/08 09:08:06;;;;;;;10.38;2.50;;;5.10;99.90;;;;;;4994940;28;20420;-63
2021/12/08 09:10:45;;;;;;;8.18;2.67;;;5.00;99.90;;;;;;5007602;28;20492;-63
2021/12/08 09:13:21;;;;;;;9.98;3.85;;;5.00;99.90;;;;;;5009845;28;20060;-63
2021/12/08 09:15:52;;;;;;;9.23;2.40;;;5.00;99.90;;;;;;5011664;28;20056;-63
2021/12/08 09:18:29;;;;;;;9.77;3.00;;;5.00;99.90;;;;;;4994634;28;20056;-63
2021/12/08 09:21:16;;;;;;;11.07;2.78;;;5.00;99.90;;;;;;4985825;28;20052;-63
2021/12/08 09:24:21;;;;;;;12.55;2.45;;;5.00;99.90;;;;;;5007795;28;20633;-63
2021/12/08 09:26:57;;;;;;;9.35;2.65;;;5.00;99.90;;;;;;4967129;28;20049;-65
2021/12/08 09:29:36;;;;;;;7.75;2.83;;;5.00;99.90;;;;;;5009292;28;20034;-63
2021/12/08 09:32:09;;;;;;;10.68;2.72;;;5.00;99.90;;;;;;4994100;28;20073;-64
2021/12/08 09:34:58;;;;;;;6.70;2.58;;;5.10;99.90;;;;;;5010220;28;20132;-64
2021/12/08 09:37:35;;;;;;;11.63;2.80;;;5.10;99.90;;;;;;5001177;28;20167;-64
2021/12/08 09:40:19;;;;;;;9.68;2.85;;;5.20;99.90;;;;;;4988860;28;20034;-63
2021/12/08 09:42:54;;;;;;;12.52;3.03;;;5.20;99.90;;;;;;5013332;28;20531;-63
2021/12/08 09:45:58;;;;;;;9.63;2.72;;;5.30;99.90;;;;;;5007607;28;20073;-63
2021/12/08 09:48:27;;;;;;;11.27;2.80;;;5.30;99.90;;;;;;5004799;28;20041;-63
2021/12/08 09:50:54;;;;;;;8.77;2.60;;;5.40;99.90;;;;;;5006679;28;20042;-64
2021/12/08 09:53:20;;;;;;;9.98;3.25;;;5.40;99.90;;;;;;5002490;28;20045;-63
2021/12/08 09:55:46;;;;;;;9.98;3.10;;;5.40;99.90;;;;;;5021066;28;20088;-63
2021/12/08 09:58:11;;;;;;;9.32;2.95;;;5.40;99.90;;;;;;4993481;28;20488;-63
2021/12/08 10:00:40;;;;;;;12.02;3.80;;;5.40;99.90;;;;;;4980801;28;20053;-63
2021/12/08 10:03:07;;;;;;;12.27;3.33;;;5.50;99.90;;;;;;5009741;28;20041;-63
2021/12/08 10:05:36;;;;;;;11.98;3.50;;;5.50;99.90;;;;;;4978638;28;20052;-64
2021/12/08 10:08:04;;;;;;;12.50;4.18;;;5.60;99.90;;;;;;4961971;28;20042;-64
2021/12/08 10:10:31;;;;;;;11.52;3.45;;;5.60;99.90;;;;;;4997851;28;20495;-64
2021/12/08 10:12:58;;;;;;;10.25;3.42;;;5.70;99.90;;;;;;4980280;28;20053;-64
2021/12/08 10:15:25;;;;;;;12.45;3.85;;;5.70;99.90;;;;;;5003396;28;20072;-63
2021/12/08 10:17:54;;;;;;;14.50;3.60;;;5.80;99.90;;;;;;4967502;28;20092;-63
2021/12/08 10:20:25;;;;;;;11.98;3.70;;;5.90;99.90;;;;;;4989828;28;20065;-63
2021/12/08 10:23:15;;;;;;;15.30;3.80;;;5.90;99.90;;;;;;5002897;28;20040;-63
2021/12/08 10:25:48;;;;;;;16.13;3.50;;;6.00;99.90;;;;;;5034987;28;20041;-63
2021/12/08 10:28:26;;;;;;;11.10;3.95;;;6.00;99.90;;;;;;4984688;28;20119;-63
2021/12/08 10:31:01;;;;;;;7.50;2.75;;;6.10;99.90;;;;;;4994114;28;20050;-63
2021/12/08 10:36:56;;;;;;;12.98;3.33;;;6.10;99.90;;;;;;4964212;28;20073;-62
2021/12/08 10:39:42;;;;;;;9.77;3.15;;;6.10;99.90;;;;;;4990198;28;20364;-63
2021/12/08 10:42:22;;;;;;;9.80;3.72;;;6.10;99.90;;;;;;4990873;28;20054;-62
2021/12/08 10:45:23;;;;;;;10.27;3.03;;;6.20;99.90;;;;;;4977039;28;20046;-63
2021/12/08 10:48:00;;;;;;;;;;;6.20;99.90;;;;;;4993469;28;20648;-63
2021/12/08 10:56:19;;;;;;;13.25;3.42;;;6.00;99.90;;;;;;4997047;28;20103;-63
2021/12/08 10:58:50;;;;;;;12.60;3.33;;;6.00;99.90;;;;;;5005291;28;20507;-62
2021/12/08 11:01:20;;;;;;;13.45;3.10;;;6.10;99.90;;;;;;5000924;28;20470;-63
2021/12/08 11:03:49;;;;;;;13.02;2.97;;;6.20;99.90;;;;;;5014349;28;20506;-62
2021/12/08 11:06:17;;;;;;;12.95;3.28;;;6.10;99.90;;;;;;5000318;28;20495;-62
2021/12/08 11:08:46;;;;;;;9.30;2.50;;;6.20;99.90;;;;;;5037445;23;20110;-86
2021/12/08 11:11:29;;;;;;;6.55;3.08;;;6.20;99.90;;;;;;5006476;28;20588;-85
2021/12/08 11:14:07;;;;;;;11.20;3.30;;;6.10;99.90;;;;;;4991465;28;20045;-86
2021/12/08 11:16:41;;;;;;;8.05;2.45;;;6.20;99.90;;;;;;5008963;28;20052;-89
2021/12/08 11:19:24;;;;;;;15.00;3.25;;;6.20;99.90;;;;;;5018316;28;20500;-87
2021/12/08 11:21:57;;;;;;;12.37;3.17;;;6.10;99.90;;;;;;4983746;28;20102;-89
2021/12/08 11:24:38;;;;;;;7.90;2.77;;;6.30;99.90;;;;;;5000176;28;20034;-88
2021/12/08 11:27:09;;;;;;;10.30;3.60;;;6.20;99.90;;;;;;4996773;28;20312;-85
2021/12/08 11:29:40;;;;;;;9.02;2.45;;;6.20;99.90;;;;;;4969814;28;20076;-86
2021/12/08 11:32:12;;;;;;;12.18;2.92;;;6.60;99.90;;;;;;4974033;28;20080;-88
2021/12/08 11:34:45;;;;;;;7.28;2.72;;;6.20;99.90;;;;;;5010639;28;20156;-86
2021/12/08 11:37:16;;;;;;;8.68;3.17;;;6.20;99.90;;;;;;5001128;28;20120;-86
2021/12/08 11:39:52;;;;;;;7.40;3.05;;;6.10;99.90;;;;;;5010958;28;20050;-87
2021/12/08 11:42:34;;;;;;;8.38;2.72;;;6.20;99.90;;;;;;4994514;28;20042;-88
2021/12/08 11:45:22;;;;;;;11.18;3.25;;;6.00;99.90;;;;;;4997409;28;20040;-87
2021/12/08 11:51:12;;;;;;;8.82;3.40;;;6.20;99.90;;;;;;4994063;28;20207;-86
2021/12/08 11:53:40;;;;;;;5.35;2.72;;;6.30;99.90;;;;;;4995497;28;20045;-87
2021/12/08 11:56:06;;;;;;;11.30;3.33;;;6.50;99.90;;;;;;4989564;28;20045;-86
2021/12/08 11:58:33;;;;;;;8.93;2.90;;;6.40;99.90;;;;;;5006806;28;20041;-89
2021/12/08 12:01:02;;;;;;;12.98;3.58;;;6.50;99.90;;;;;;4992285;28;20052;-86
2021/12/08 12:03:29;;;;;;;7.78;2.95;;;6.10;99.90;;;;;;5005769;28;20421;-87
2021/12/08 12:05:55;;;;;;;18.45;3.60;;;6.10;99.90;;;;;;4996711;28;20137;-87
2021/12/08 12:08:25;;;;;;;9.02;3.75;;;6.50;99.90;;;;;;5006310;28;20057;-88
2021/12/08 12:10:53;;;;;;;9.95;3.70;;;6.00;99.90;;;;;;4992944;28;20039;-86
2021/12/08 12:13:19;;;;;;;11.68;3.55;;;6.10;99.90;;;;;;5020889;28;20559;-87
2021/12/08 12:15:53;;;;;;;9.52;3.50;;;6.40;99.90;;;;;;4991185;28;20346;-85
2021/12/08 12:18:30;;;;;;;9.25;3.35;;;6.00;99.90;;;;;;4988498;28;20053;-85
2021/12/08 12:21:21;;;;;;;7.40;3.03;;;6.00;99.90;;;;;;5016270;28;20080;-84
2021/12/08 12:23:56;;;;;;;8.88;3.10;;;6.20;99.90;;;;;;5011024;28;20116;-86
2021/12/08 12:26:37;;;;;;;8.32;3.45;;;6.00;99.90;;;;;;4995523;28;20192;-86
2021/12/08 12:29:27;;;;;;;8.38;3.17;;;6.20;99.90;;;;;;5007574;28;20266;-86
2021/12/08 12:32:19;;;;;;;6.40;3.38;;;6.00;99.90;;;;;;5007007;28;20042;-84
2021/12/08 12:34:45;;;;;;;8.77;3.25;;;6.00;99.90;;;;;;4991020;28;20124;-85
2021/12/08 12:37:16;;;;;;;8.45;3.20;;;6.60;99.90;;;;;;5023377;28;20052;-87
2021/12/08 12:39:54;;;;;;;12.00;3.80;;;6.10;99.90;;;;;;4983504;28;20044;-87
2021/12/08 12:42:24;;;;;;;10.07;2.88;;;6.30;99.90;;;;;;4989391;28;20041;-87
2021/12/08 12:45:00;;;;;;;10.00;3.53;;;6.10;99.90;;;;;;5011666;28;20037;-87
2021/12/08 12:47:28;;;;;;;7.45;2.70;;;6.10;99.90;;;;;;4985042;28;20053;-87
2021/12/08 12:50:00;;;;;;;7.05;2.97;;;6.30;99.90;;;;;;4992655;28;20072;-87
2021/12/08 12:52:37;;;;;;;8.95;3.28;;;6.20;99.90;;;;;;5012469;28;20041;-87
2021/12/08 12:55:20;;;;;;;6.38;2.72;;;6.20;99.90;;;;;;4996943;28;20030;-88
2021/12/08 12:58:04;;;;;;;9.00;2.90;;;6.40;99.90;;;;;;4988455;28;20430;-86
2021/12/08 13:00:31;;;;;;;9.52;3.22;;;6.10;99.90;;;;;;5002914;28;20160;-87
2021/12/08 13:02:58;;;;;;;7.57;3.22;;;6.10;99.90;;;;;;4999390;28;20068;-86
2021/12/08 13:05:51;;;;;;;12.25;3.05;;;6.10;99.90;;;;;;5006758;28;20456;-87
2021/12/08 13:08:35;;;;;;;8.52;2.83;;;6.20;99.90;;;;;;5008669;28;20576;-87
2021/12/08 13:11:35;;;;;;;6.63;3.08;;;6.20;99.90;;;;;;4994354;28;20037;-87
2021/12/08 13:14:03;;;;;;;9.88;2.90;;;6.30;99.90;;;;;;5007115;28;20037;-86
2021/12/08 13:16:33;;;;;;;12.13;3.22;;;6.50;99.90;;;;;;4992362;28;20041;-87
2021/12/08 13:19:04;;;;;;;7.60;2.55;;;6.30;99.90;;;;;;4989139;28;20041;-86
2021/12/08 13:21:45;;;;;;;9.90;4.32;;;6.30;99.90;;;;;;5004968;28;20042;-87
2021/12/08 13:24:41;;;;;;;8.30;2.53;;;6.40;99.90;;;;;;5011960;28;20033;-88
2021/12/08 13:27:10;;;;;;;9.77;2.60;;;6.30;99.90;;;;;;5000479;28;20485;-86
2021/12/08 13:29:44;;;;;;;7.38;2.72;;;6.30;99.90;;;;;;4998058;28;20315;-86
2021/12/08 13:32:25;;;;;;;8.75;2.35;;;6.10;99.90;;;;;;4991892;28;20052;-85
2021/12/08 13:35:06;;;;;;;9.50;2.40;;;6.50;99.90;;;;;;5000899;28;20056;-87
2021/12/08 13:37:54;;;;;;;7.68;2.60;;;6.50;99.90;;;;;;4979149;28;20049;-87
2021/12/08 13:44:49;;;;;;;6.15;2.88;;;6.30;99.90;;;;;;4913506;29;20516;-87
2021/12/08 13:48:09;;;;;;;10.52;2.45;;;6.30;99.90;;;;;;4910505;28;20052;-87
2021/12/08 13:50:41;;;;;;;7.57;2.28;;;6.10;99.90;;;;;;4996734;28;20071;-87
2021/12/08 13:53:22;;;;;;;7.82;3.00;;;6.10;99.90;;;;;;4997719;28;20224;-86
2021/12/08 14:06:13;;;;;;;6.85;2.67;;;6.30;99.90;;;;;;4947630;28;20467;-86
2021/12/08 14:08:45;;;;;;;9.10;2.63;;;6.20;99.90;;;;;;4950445;23;20043;-55
2021/12/08 14:11:17;;;;;;;9.95;2.10;;;6.30;99.90;;;;;;5027564;28;20037;-58
2021/12/08 14:13:47;;;;;;;8.23;2.58;;;6.30;99.90;;;;;;5020554;28;20520;-57
2021/12/08 14:16:19;;;;;;;6.32;2.00;;;6.30;99.90;;;;;;5013642;28;20054;-58
2021/12/08 14:18:53;;;;;;;8.52;2.50;;;6.20;99.90;;;;;;5007308;28;20581;-57
2021/12/08 14:21:24;;;;;;;8.48;3.28;;;6.20;99.90;;;;;;5003478;28;20049;-59
2021/12/08 14:23:55;;;;;;;7.82;2.15;;;6.20;99.90;;;;;;4983752;28;20133;-57
2021/12/08 14:26:28;;;;;;;6.22;2.50;;;6.20;99.90;;;;;;4989663;28;20116;-58
2021/12/08 14:28:56;;;;;;;9.15;2.22;;;6.10;99.90;;;;;;4986131;28;20099;-58